Time;durP1;ratioP1;P1;durP2;ratioP2;P2;SDS_P1;SDS_P2;PMS_P1;PMS_P2;Temp;Humidity;BMP_temperature;BMP_pressure;BME280_temperature;BME280_humidity;BME280_pressure;Samples;Min_cycle;Max_cycle;Signal;HPM_P1;HPM_P2
2022/06/05 00:01:53;;;;;;;9.82;5.20;;;;;;;22.55;77.76;99404.56;4304226;33;34901;-71
2022/06/05 00:05:02;;;;;;;8.55;5.05;;;;;;;22.20;79.47;99408.31;4304172;33;35135;-71
2022/06/05 00:07:52;;;;;;;7.78;5.07;;;;;;;22.18;80.17;99406.69;4304958;33;34379;-72
2022/06/05 00:10:25;;;;;;;9.60;5.22;;;;;;;21.72;82.97;99412.78;4303255;33;33605;-71
2022/06/05 00:13:14;;;;;;;10.02;5.90;;;;;;;21.88;81.46;99411.00;4303799;33;33897;-71
2022/06/05 00:15:42;;;;;;;7.37;5.37;;;;;;;21.78;82.90;99399.22;4302913;33;35260;-70
2022/06/05 00:18:11;;;;;;;8.00;4.72;;;;;;;22.54;77.94;99401.06;4314785;33;35426;-71
2022/06/05 00:20:43;;;;;;;8.68;5.35;;;;;;;22.52;77.30;99406.47;4304266;33;34133;-70
2022/06/05 00:23:12;;;;;;;7.53;5.15;;;;;;;22.49;77.54;99403.97;4291871;33;33261;-71
2022/06/05 00:26:20;;;;;;;8.35;5.50;;;;;;;21.87;80.65;99392.53;4304261;33;35049;-70
2022/06/05 00:29:07;;;;;;;10.57;5.72;;;;;;;22.02;80.08;99402.25;4302763;33;35009;-71
2022/06/05 00:31:40;;;;;;;7.60;5.50;;;;;;;22.28;78.28;99398.13;4302932;33;32243;-70
2022/06/05 00:34:08;;;;;;;6.80;5.40;;;;;;;22.04;78.78;99403.03;4304065;33;34894;-70
2022/06/05 00:36:49;;;;;;;9.23;5.57;;;;;;;21.92;78.56;99395.78;4303271;33;35853;-70
2022/06/05 00:39:24;;;;;;;7.35;5.62;;;;;;;22.11;78.07;99388.50;4291729;33;33637;-70
2022/06/05 00:42:19;;;;;;;7.95;5.22;;;;;;;22.03;78.33;99382.75;4304201;33;33361;-70
2022/06/05 00:44:55;;;;;;;9.13;5.85;;;;;;;21.71;80.43;99379.31;4302515;33;33979;-71
2022/06/05 00:47:29;;;;;;;9.60;6.20;;;;;;;21.70;79.70;99375.78;4313676;33;35095;-71
2022/06/05 00:50:00;;;;;;;8.73;5.80;;;;;;;22.03;77.98;99372.16;4303004;33;35319;-70
2022/06/05 00:52:30;;;;;;;8.00;5.80;;;;;;;22.10;77.30;99372.66;4303040;33;32664;-70
2022/06/05 00:54:58;;;;;;;9.00;6.55;;;;;;;22.31;75.93;99379.41;4303012;33;33160;-70
2022/06/05 00:57:28;;;;;;;10.23;6.80;;;;;;;21.78;78.55;99372.72;4304051;33;35101;-70
2022/06/05 00:59:57;;;;;;;9.23;6.50;;;;;;;21.51;80.76;99369.78;4303359;33;34483;-70
2022/06/05 01:02:26;;;;;;;14.57;6.43;;;;;;;21.66;79.66;99363.63;4302907;33;33645;-70
2022/06/05 01:04:54;;;;;;;8.93;6.45;;;;;;;21.75;79.69;99359.63;4314774;33;34766;-70
2022/06/05 01:07:21;;;;;;;9.05;6.78;;;;;;;22.01;78.43;99360.78;4302997;33;35109;-70
2022/06/05 01:09:50;;;;;;;11.57;7.45;;;;;;;22.02;78.21;99354.53;4304360;33;34522;-70
2022/06/05 01:12:46;;;;;;;7.37;5.95;;;;;;;21.81;78.92;99353.09;4314401;33;33576;-70
2022/06/05 01:15:29;;;;;;;10.35;7.07;;;;;;;21.81;79.31;99356.59;4303215;33;33704;-70
2022/06/05 01:18:03;;;;;;;8.77;5.72;;;;;;;21.80;78.50;99356.72;4300641;33;35136;-70
2022/06/05 01:20:46;;;;;;;8.73;5.72;;;;;;;21.72;78.56;99350.03;4290460;33;35374;-70
2022/06/05 01:23:27;;;;;;;9.68;6.18;;;;;;;21.99;77.14;99351.19;4304350;33;34353;-70
2022/06/05 01:26:17;;;;;;;15.73;6.72;;;;;;;21.73;78.58;99351.75;4302607;33;33960;-71
2022/06/05 01:28:53;;;;;;;8.75;6.25;;;;;;;22.41;74.84;99349.66;4302816;33;35912;-71
2022/06/05 01:31:31;;;;;;;9.20;6.25;;;;;;;22.14;76.11;99353.81;4314181;33;34399;-70
2022/06/05 01:34:05;;;;;;;8.10;6.12;;;;;;;22.55;74.04;99354.16;4302992;33;33463;-71
2022/06/05 01:36:49;;;;;;;9.57;7.35;;;;;;;22.48;74.34;99351.88;4314042;33;34063;-71
2022/06/05 01:39:38;;;;;;;8.77;6.40;;;;;;;21.45;79.52;99349.75;4301975;33;35157;-70
2022/06/05 01:42:10;;;;;;;9.52;6.65;;;;;;;22.01;77.39;99355.47;4314019;33;34605;-70
2022/06/05 01:44:43;;;;;;;11.15;6.87;;;;;;;21.94;77.13;99362.94;4314801;33;33574;-71
2022/06/05 01:47:18;;;;;;;9.20;6.82;;;;;;;21.55;79.46;99355.44;4302318;33;33955;-70
2022/06/05 01:50:00;;;;;;;9.82;6.93;;;;;;;21.65;79.07;99361.06;4315852;33;35904;-70
2022/06/05 01:52:52;;;;;;;10.70;6.72;;;;;;;22.17;76.27;99351.94;4303151;33;35300;-70
2022/06/05 01:55:24;;;;;;;13.57;6.95;;;;;;;21.40;80.57;99351.81;4290630;33;33580;-70
2022/06/05 01:57:54;;;;;;;8.35;6.30;;;;;;;21.28;81.67;99347.19;4304398;33;33943;-71
2022/06/05 02:00:22;;;;;;;8.93;6.47;;;;;;;21.95;77.79;99363.78;4303983;33;35094;-70
2022/06/05 02:03:08;;;;;;;9.15;6.65;;;;;;;21.57;78.77;99353.56;4304163;33;34375;-70
2022/06/05 02:05:44;;;;;;;9.25;6.78;;;;;;;21.68;77.84;99351.16;4303942;33;33469;-70
2022/06/05 02:08:17;;;;;;;11.48;6.28;;;;;;;21.80;76.75;99364.66;4302069;33;33903;-71
2022/06/05 02:10:51;;;;;;;8.60;6.87;;;;;;;21.49;78.38;99361.91;4312889;33;34944;-70
2022/06/05 02:13:19;;;;;;;11.82;6.93;;;;;;;21.42;78.75;99355.22;4316511;33;35167;-70
2022/06/05 02:15:48;;;;;;;8.05;6.00;;;;;;;21.61;77.79;99365.69;4303934;33;34156;-71
2022/06/05 02:18:15;;;;;;;9.32;7.45;;;;;;;21.35;78.23;99365.31;4315952;33;34435;-71
2022/06/05 02:20:46;;;;;;;10.43;6.87;;;;;;;21.01;80.94;99361.84;4303665;33;33935;-73
2022/06/05 02:23:21;;;;;;;10.52;6.87;;;;;;;21.34;78.77;99353.00;4305362;33;35073;-70
2022/06/05 02:25:49;;;;;;;13.80;7.43;;;;;;;20.96;80.60;99358.56;4303362;33;33462;-69
2022/06/05 02:28:18;;;;;;;11.80;7.87;;;;;;;21.19;79.09;99359.13;4304937;33;34872;-69
2022/06/05 02:30:54;;;;;;;12.35;8.73;;;;;;;20.81;82.00;99359.41;4315778;33;35754;-69
2022/06/05 02:33:31;;;;;;;12.80;8.60;;;;;;;20.54;86.21;99361.66;4316235;33;34525;-69
2022/06/05 02:36:24;;;;;;;10.63;7.85;;;;;;;20.76;85.07;99351.69;4304837;33;33399;-69
2022/06/05 02:39:06;;;;;;;12.50;9.25;;;;;;;20.87;84.77;99348.47;4303374;33;33904;-70
2022/06/05 02:41:50;;;;;;;12.02;8.57;;;;;;;21.34;82.07;99358.31;4303823;33;35965;-78
2022/06/05 02:44:40;;;;;;;13.13;9.35;;;;;;;21.45;80.55;99348.91;4316041;33;35175;-76
2022/06/05 02:47:18;;;;;;;18.62;9.48;;;;;;;21.38;80.85;99351.88;4304908;33;34415;-70
2022/06/05 02:50:11;;;;;;;14.27;9.25;;;;;;;21.24;80.91;99353.59;4304070;33;34055;-70
2022/06/05 02:52:39;;;;;;;13.27;9.30;;;;;;;21.70;78.76;99357.22;4303516;33;35794;-70
2022/06/05 02:55:09;;;;;;;13.05;10.02;;;;;;;21.46;79.48;99356.81;4304057;33;35231;-70
2022/06/05 02:57:37;;;;;;;13.20;9.80;;;;;;;21.05;82.03;99361.69;4303501;33;33235;-69
2022/06/05 03:00:12;;;;;;;13.70;9.65;;;;;;;21.36;79.91;99356.41;4303524;33;34673;-70
2022/06/05 03:05:27;;;;;;;13.02;9.35;;;;;;;21.51;78.69;99356.53;4305439;33;35262;-71
2022/06/05 03:07:55;;;;;;;16.77;10.27;;;;;;;20.97;81.09;99362.09;4304626;33;33340;-70
2022/06/05 03:10:23;;;;;;;13.85;10.07;;;;;;;21.02;80.40;99363.56;4292177;33;33393;-69
2022/06/05 03:12:50;;;;;;;15.05;10.40;;;;;;;21.14;80.69;99361.19;4315183;33;35881;-70
2022/06/05 03:15:19;;;;;;;15.35;10.50;;;;;;;20.89;82.17;99362.47;4315116;33;34431;-69
2022/06/05 03:17:47;;;;;;;13.23;10.02;;;;;;;20.61;83.75;99352.47;4303393;33;34234;-69
2022/06/05 03:20:16;;;;;;;17.55;11.10;;;;;;;20.94;81.52;99362.25;4303847;33;33943;-69
2022/06/05 03:22:45;;;;;;;16.10;10.88;;;;;;;20.96;81.97;99366.50;4303171;33;35142;-69
2022/06/05 03:25:21;;;;;;;16.90;11.05;;;;;;;21.68;78.46;99367.06;4303969;33;34311;-70
2022/06/05 03:27:54;;;;;;;15.13;11.18;;;;;;;21.11;81.39;99361.37;4304752;33;34293;-70
2022/06/05 03:30:21;;;;;;;18.98;10.75;;;;;;;20.98;82.47;99364.66;4303341;33;33875;-70
2022/06/05 03:32:49;;;;;;;15.63;11.18;;;;;;;20.83;83.72;99368.13;4304510;33;35168;-70
2022/06/05 03:35:17;;;;;;;13.62;9.98;;;;;;;20.68;84.99;99379.50;4315529;33;33027;-70
2022/06/05 03:37:45;;;;;;;18.40;12.15;;;;;;;20.87;84.42;99377.59;4304597;33;33275;-70
2022/06/05 03:40:15;;;;;;;16.98;11.85;;;;;;;21.50;81.21;99384.84;4305081;33;33915;-70
2022/06/05 03:42:43;;;;;;;17.12;11.98;;;;;;;21.45;81.64;99383.34;4303135;33;34432;-70
2022/06/05 03:45:16;;;;;;;19.05;11.23;;;;;;;21.47;81.60;99392.09;4304289;33;35194;-70
2022/06/05 03:47:45;;;;;;;17.50;11.95;;;;;;;21.12;83.66;99394.81;4304638;33;33788;-70
2022/06/05 03:50:14;;;;;;;15.55;11.40;;;;;;;21.42;82.74;99402.06;4303914;33;33919;-70
2022/06/05 03:52:42;;;;;;;15.00;11.15;;;;;;;21.33;83.02;99411.34;4303328;33;35026;-70
2022/06/05 03:55:14;;;;;;;15.35;11.30;;;;;;;21.58;80.95;99408.25;4314095;33;35305;-70
2022/06/05 03:57:42;;;;;;;14.45;10.73;;;;;;;21.28;82.43;99411.59;4291311;33;34444;-69
2022/06/05 04:00:11;;;;;;;16.90;11.55;;;;;;;20.93;84.60;99414.34;4315825;33;32772;-70
2022/06/05 04:02:39;;;;;;;18.83;13.15;;;;;;;20.93;85.27;99424.94;4314367;33;35043;-70
2022/06/05 04:05:09;;;;;;;16.45;12.02;;;;;;;21.46;81.68;99414.22;4303872;33;35271;-70
2022/06/05 04:07:36;;;;;;;15.82;11.27;;;;;;;21.20;83.82;99419.13;4291304;33;33530;-70
2022/06/05 04:10:04;;;;;;;17.33;10.93;;;;;;;21.64;82.80;99423.81;4304175;33;34106;-70
2022/06/05 04:12:33;;;;;;;17.20;11.88;;;;;;;21.98;80.00;99431.69;4302241;33;35031;-70
2022/06/05 04:15:01;;;;;;;16.40;11.00;;;;;;;21.75;80.39;99432.03;4304761;33;34470;-70
2022/06/05 04:17:28;;;;;;;17.80;10.52;;;;;;;21.83;80.15;99442.22;4304280;33;33615;-70
2022/06/05 04:19:56;;;;;;;15.68;10.93;;;;;;;21.30;83.36;99436.22;4304843;33;33876;-69
2022/06/05 04:22:24;;;;;;;14.27;9.40;;;;;;;21.27;83.50;99436.37;4304227;33;35106;-69
2022/06/05 04:24:52;;;;;;;15.45;10.25;;;;;;;22.22;79.00;99437.37;4304583;33;34175;-70
2022/06/05 04:27:20;;;;;;;13.95;9.93;;;;;;;21.85;81.40;99436.81;4314583;33;33089;-70
2022/06/05 04:29:48;;;;;;;11.98;9.82;;;;;;;22.13;79.37;99442.28;4304838;33;34745;-70
2022/06/05 04:32:15;;;;;;;14.43;10.07;;;;;;;22.67;76.48;99441.84;4304141;33;35930;-70
2022/06/05 04:34:44;;;;;;;14.38;10.43;;;;;;;22.47;77.20;99451.00;4304192;33;35289;-69
2022/06/05 04:37:12;;;;;;;13.25;10.07;;;;;;;22.56;76.47;99452.25;4304137;33;33608;-69
2022/06/05 04:39:39;;;;;;;11.07;8.55;;;;;;;22.87;74.05;99453.97;4304714;33;33691;-69
2022/06/05 04:42:07;;;;;;;11.48;8.48;;;;;;;22.33;77.23;99443.81;4303767;33;34659;-70
2022/06/05 04:44:35;;;;;;;14.70;8.85;;;;;;;22.36;78.11;99448.12;4304624;33;34411;-69
2022/06/05 04:47:04;;;;;;;15.07;9.38;;;;;;;22.38;78.39;99453.31;4303438;33;34417;-70
2022/06/05 04:49:34;;;;;;;15.85;10.05;;;;;;;22.08;80.67;99460.25;4302541;33;33959;-71
2022/06/05 04:52:02;;;;;;;14.20;10.18;;;;;;;22.30;78.65;99461.72;4304225;33;34751;-69
2022/06/05 04:54:30;;;;;;;16.98;12.57;;;;;;;22.68;77.33;99463.97;4312440;33;34534;-69
2022/06/05 04:56:58;;;;;;;17.48;11.05;;;;;;;22.41;78.80;99472.56;4293648;33;34469;-70
2022/06/05 04:59:26;;;;;;;16.40;11.50;;;;;;;22.44;78.56;99472.38;4304337;33;33988;-72
2022/06/05 05:01:54;;;;;;;20.58;10.70;;;;;;;22.60;77.68;99477.66;4304285;33;35080;-76
2022/06/05 05:04:22;;;;;;;17.33;10.55;;;;;;;22.78;77.17;99473.06;4304170;33;35115;-79
2022/06/05 05:06:49;;;;;;;17.77;11.30;;;;;;;23.00;77.80;99479.78;4303821;33;34415;-70
2022/06/05 05:09:17;;;;;;;16.77;11.10;;;;;;;22.70;76.71;99484.16;4304370;33;34844;-70
2022/06/05 05:11:45;;;;;;;15.90;10.80;;;;;;;22.51;77.78;99492.31;4303430;33;36030;-70
2022/06/05 05:14:13;;;;;;;16.58;11.57;;;;;;;22.17;79.40;99490.72;4304367;33;34395;-70
2022/06/05 05:16:40;;;;;;;20.00;11.15;;;;;;;22.19;80.62;99493.28;4314800;33;34499;-70
2022/06/05 05:19:09;;;;;;;17.17;11.68;;;;;;;22.62;77.98;99506.78;4303715;33;34724;-70
2022/06/05 05:21:37;;;;;;;19.95;11.45;;;;;;;22.48;78.92;99510.22;4303602;33;35712;-71
2022/06/05 05:24:05;;;;;;;17.85;11.43;;;;;;;22.54;78.42;99515.19;4291813;33;34577;-70
2022/06/05 05:26:34;;;;;;;18.25;11.82;;;;;;;22.33;80.24;99517.25;4316318;33;33621;-70
2022/06/05 05:29:03;;;;;;;16.05;11.63;;;;;;;22.55;78.88;99516.03;4316653;33;34376;-79
2022/06/05 05:31:35;;;;;;;18.95;12.70;;;;;;;22.58;78.84;99527.31;4303998;33;35229;-71
2022/06/05 05:34:04;;;;;;;18.35;11.88;;;;;;;22.14;79.64;99530.66;4305781;33;34485;-71
2022/06/05 05:36:32;;;;;;;20.27;12.73;;;;;;;22.22;80.02;99527.56;4316299;33;34188;-80
2022/06/05 05:42:05;;;;;;;18.80;10.93;;;;;;;22.52;77.65;99528.53;4305317;33;34787;-71
2022/06/05 05:44:47;;;;;;;18.65;12.45;;;;;;;22.85;77.13;99527.53;4304823;33;34388;-73
2022/06/05 05:47:17;;;;;;;16.77;10.48;;;;;;;22.85;76.45;99532.84;4304147;33;33655;-69
2022/06/05 05:49:46;;;;;;;14.70;9.38;;;;;;;23.36;72.65;99524.53;4316065;33;33272;-70
2022/06/05 05:52:13;;;;;;;15.35;10.02;;;;;;;22.89;74.77;99526.41;4305326;33;35060;-71
2022/06/05 05:54:41;;;;;;;13.20;8.55;;;;;;;22.84;74.64;99522.31;4304890;33;34330;-69
2022/06/05 05:57:09;;;;;;;16.35;10.45;;;;;;;22.66;74.62;99525.09;4304853;33;34434;-68
2022/06/05 05:59:37;;;;;;;21.25;10.48;;;;;;;22.62;76.42;99525.34;4305171;33;33869;-70
2022/06/05 06:02:10;;;;;;;16.02;10.65;;;;;;;22.48;75.73;99515.53;4303998;33;34956;-70
2022/06/05 06:04:40;;;;;;;12.98;8.68;;;;;;;22.79;74.62;99519.06;4316094;33;34453;-70
2022/06/05 06:07:09;;;;;;;12.10;7.85;;;;;;;22.50;75.70;99511.84;4303927;33;34585;-71
2022/06/05 06:09:38;;;;;;;12.50;8.27;;;;;;;22.70;76.08;99525.78;4303724;33;34015;-69
2022/06/05 06:12:06;;;;;;;12.35;8.25;;;;;;;23.21;72.36;99520.16;4315722;33;35029;-70
2022/06/05 06:14:34;;;;;;;11.52;7.55;;;;;;;22.82;73.25;99519.75;4304405;33;35041;-71
2022/06/05 06:17:03;;;;;;;10.20;6.85;;;;;;;23.09;72.23;99516.44;4305128;33;33479;-69
2022/06/05 06:19:32;;;;;;;11.50;6.97;;;;;;;23.33;73.47;99514.13;4304333;33;33913;-70
2022/06/05 06:21:59;;;;;;;10.23;6.55;;;;;;;23.39;71.19;99513.72;4305010;33;35935;-70
2022/06/05 06:24:27;;;;;;;7.87;5.62;;;;;;;23.55;69.90;99500.34;4305389;33;34576;-71
2022/06/05 06:26:56;;;;;;;8.57;5.47;;;;;;;23.16;71.03;99507.16;4304311;33;33349;-69
2022/06/05 06:29:24;;;;;;;7.82;5.45;;;;;;;23.48;69.09;99509.66;4304413;33;34533;-69
2022/06/05 06:31:51;;;;;;;7.70;5.55;;;;;;;22.91;71.19;99511.22;4304987;33;35891;-70
2022/06/05 06:34:19;;;;;;;7.70;5.40;;;;;;;23.19;69.52;99495.47;4305248;33;34360;-71
2022/06/05 06:36:47;;;;;;;8.25;5.25;;;;;;;23.03;71.07;99508.78;4304823;33;34280;-71
2022/06/05 06:39:18;;;;;;;8.30;4.93;;;;;;;23.67;67.92;99493.41;4304102;33;32398;-70
2022/06/05 06:41:47;;;;;;;10.07;5.60;;;;;;;23.32;70.09;99507.06;4303620;33;35114;-70
2022/06/05 06:44:15;;;;;;;7.32;5.15;;;;;;;23.76;67.34;99499.97;4303028;33;34582;-69
2022/06/05 06:46:44;;;;;;;7.68;5.65;;;;;;;23.03;69.18;99506.13;4304211;33;33112;-67
2022/06/05 06:49:12;;;;;;;8.80;6.35;;;;;;;23.47;70.85;99497.28;4304951;33;34756;-68
2022/06/05 06:51:40;;;;;;;8.80;5.60;;;;;;;23.51;67.58;99493.53;4304432;33;35104;-68
2022/06/05 06:54:08;;;;;;;9.13;5.40;;;;;;;23.51;66.98;99488.19;4302690;33;34494;-68
2022/06/05 06:56:36;;;;;;;7.78;5.40;;;;;;;23.26;69.27;99487.06;4302554;33;33753;-68
2022/06/05 06:59:04;;;;;;;8.27;5.70;;;;;;;23.87;68.44;99492.19;4304231;33;33738;-69
2022/06/05 07:01:32;;;;;;;7.65;5.22;;;;;;;23.72;67.55;99493.09;4315773;33;35035;-69
2022/06/05 07:04:00;;;;;;;7.03;5.10;;;;;;;24.23;64.30;99498.78;4302991;33;34442;-68
2022/06/05 07:06:28;;;;;;;8.93;5.90;;;;;;;23.74;66.80;99485.91;4291178;33;34346;-69
2022/06/05 07:08:56;;;;;;;8.52;6.35;;;;;;;23.43;67.94;99483.34;4315166;33;33524;-72
2022/06/05 07:11:24;;;;;;;8.75;6.07;;;;;;;23.83;67.23;99480.03;4303288;33;35159;-70
2022/06/05 07:13:52;;;;;;;8.80;5.60;;;;;;;23.90;66.07;99486.69;4304217;33;34645;-70
2022/06/05 07:16:20;;;;;;;10.10;5.90;;;;;;;23.86;66.76;99490.50;4304800;33;33459;-70
2022/06/05 07:18:48;;;;;;;7.47;5.07;;;;;;;24.35;64.36;99487.31;4315207;33;34103;-70
2022/06/05 07:21:20;;;;;;;7.25;5.18;;;;;;;24.33;65.53;99483.03;4316112;33;35089;-70
2022/06/05 07:23:48;;;;;;;7.65;5.35;;;;;;;24.55;64.35;99483.37;4303563;33;34468;-70
2022/06/05 07:26:19;;;;;;;7.87;5.90;;;;;;;24.39;66.95;99478.19;4305198;33;34256;-69
2022/06/05 07:28:46;;;;;;;8.52;5.97;;;;;;;24.36;65.27;99477.53;4304809;33;33168;-70
2022/06/05 07:31:15;;;;;;;8.93;6.45;;;;;;;24.74;65.10;99482.13;4315200;33;36029;-70
2022/06/05 07:33:43;;;;;;;9.23;6.25;;;;;;;24.87;64.36;99480.34;4314867;33;35327;-70
2022/06/05 07:36:16;;;;;;;12.43;7.43;;;;;;;24.76;62.78;99488.19;4305115;33;33548;-70
2022/06/05 07:38:44;;;;;;;9.55;5.70;;;;;;;24.92;62.65;99496.03;4304571;33;33988;-70
2022/06/05 07:41:33;;;;;;;8.85;5.45;;;;;;;25.05;61.39;99486.25;4305309;33;35139;-70
2022/06/05 07:44:02;;;;;;;8.38;5.87;;;;;;;25.31;62.86;99489.81;4304261;33;34803;-70
2022/06/05 07:46:31;;;;;;;10.52;6.05;;;;;;;25.52;61.37;99490.13;4303737;33;34384;-70
2022/06/05 07:48:59;;;;;;;7.57;5.53;;;;;;;25.84;59.39;99494.97;4304786;33;34063;-70
2022/06/05 07:54:27;;;;;;;7.82;6.03;;;;;;;25.35;60.22;99495.78;4304636;33;35162;-70
2022/06/05 07:56:57;;;;;;;7.40;5.70;;;;;;;24.81;61.48;99499.41;4305085;33;34291;-70
2022/06/05 07:59:26;;;;;;;8.95;6.10;;;;;;;25.59;59.25;99505.66;4304458;33;34105;-70
2022/06/05 08:01:58;;;;;;;9.07;6.75;;;;;;;25.14;60.65;99509.59;4304601;33;35828;-70
2022/06/05 08:04:27;;;;;;;9.88;6.57;;;;;;;25.47;60.06;99508.25;4307921;33;34049;-70
2022/06/05 08:06:57;;;;;;;10.23;7.12;;;;;;;25.61;60.50;99504.63;4303698;33;34360;-70
2022/06/05 08:09:27;;;;;;;9.65;6.15;;;;;;;25.33;59.71;99506.53;4315739;33;34001;-69
2022/06/05 08:11:55;;;;;;;8.48;5.90;;;;;;;25.28;60.61;99502.50;4303607;33;34883;-70
2022/06/05 08:14:23;;;;;;;9.20;6.62;;;;;;;25.45;60.30;99509.28;4303705;33;35196;-70
2022/06/05 08:16:51;;;;;;;11.90;6.97;;;;;;;25.38;60.89;99503.56;4304856;33;34175;-69
2022/06/05 08:19:21;;;;;;;9.60;6.93;;;;;;;25.49;63.96;99502.81;4303258;33;34690;-70
2022/06/05 08:21:51;;;;;;;10.07;6.47;;;;;;;26.42;58.11;99495.25;4304871;33;34759;-70
2022/06/05 08:24:20;;;;;;;8.40;5.82;;;;;;;26.24;57.90;99508.13;4302494;33;34623;-70
2022/06/05 08:26:49;;;;;;;11.27;6.55;;;;;;;26.13;57.57;99515.22;4303777;33;34341;-70
2022/06/05 08:29:18;;;;;;;9.13;6.75;;;;;;;26.34;57.88;99512.78;4306136;33;289041;-70
2022/06/05 08:31:47;;;;;;;9.27;6.50;;;;;;;26.84;56.54;99513.53;4303608;33;35065;-70
2022/06/05 08:34:15;;;;;;;9.40;6.78;;;;;;;27.31;55.39;99509.06;4304086;33;35146;-71
2022/06/05 08:36:43;;;;;;;10.20;6.35;;;;;;;27.41;57.44;99510.03;4314923;33;34450;-70
2022/06/05 08:42:33;;;;;;;7.32;5.70;;;;;;;27.03;54.32;99511.16;4267315;33;35050;-70
2022/06/05 08:45:19;;;;;;;8.52;6.35;;;;;;;26.91;56.65;99519.25;4296787;33;34362;-70
2022/06/05 08:47:48;;;;;;;;;;;;;;;26.49;55.25;99522.34;4303446;33;33443;-70
2022/06/05 08:50:47;;;;;;;8.75;6.82;;;;;;;26.14;56.86;99527.56;4302058;33;34215;-69
2022/06/05 08:53:21;;;;;;;8.93;6.30;;;;;;;27.36;54.48;99524.75;4299149;33;34962;-70
2022/06/05 08:55:51;;;;;;;8.30;6.30;;;;;;;27.79;51.67;99513.34;4303571;33;34957;-70
2022/06/05 08:58:36;;;;;;;8.43;5.82;;;;;;;26.86;55.73;99515.13;4314429;33;34309;-70
2022/06/05 09:01:22;;;;;;;10.00;6.47;;;;;;;26.31;56.87;99513.84;4304682;33;33959;-70
2022/06/05 09:04:02;;;;;;;9.07;6.32;;;;;;;27.27;55.13;99506.72;4306864;33;34748;-70
2022/06/05 09:06:36;;;;;;;12.40;6.85;;;;;;;26.82;54.23;99502.94;4298916;33;34447;-70
2022/06/05 09:09:11;;;;;;;9.38;7.00;;;;;;;27.33;57.38;99507.09;4314619;33;34003;-71
2022/06/05 09:12:18;;;;;;;7.72;6.32;;;;;;;28.42;52.31;99500.22;4291344;33;34742;-72
2022/06/05 09:14:54;;;;;;;9.00;6.07;;;;;;;29.06;48.80;99504.72;4302653;33;34891;-71
2022/06/05 09:17:23;;;;;;;8.63;6.10;;;;;;;29.18;48.50;99496.66;4315266;33;35334;-71
2022/06/05 09:19:51;;;;;;;6.40;5.28;;;;;;;28.54;49.61;99498.41;4304071;33;33228;-70
2022/06/05 09:22:22;;;;;;;10.45;5.97;;;;;;;28.33;50.00;99501.00;4303797;33;34767;-70
2022/06/05 09:25:15;;;;;;;7.90;6.05;;;;;;;28.24;50.02;99501.75;4303199;33;35073;-72
2022/06/05 09:27:56;;;;;;;7.70;6.30;;;;;;;28.23;50.35;99500.06;4302697;33;34336;-71
2022/06/05 09:30:30;;;;;;;8.60;6.43;;;;;;;28.09;51.03;99496.66;4304186;33;34375;-72
2022/06/05 09:33:20;;;;;;;8.50;6.35;;;;;;;28.72;49.82;99506.72;4303966;33;34463;-70
2022/06/05 09:36:01;;;;;;;8.07;6.12;;;;;;;29.49;51.33;99510.94;4302989;33;35942;-70
2022/06/05 09:39:14;;;;;;;8.23;6.00;;;;;;;29.94;46.49;99504.38;4313085;33;34524;-70
2022/06/05 09:41:57;;;;;;;7.28;6.30;;;;;;;29.50;52.75;99513.47;4300897;33;33254;-71
2022/06/05 09:44:46;;;;;;;10.65;6.70;;;;;;;30.55;45.96;99503.34;4303512;33;34752;-71
2022/06/05 09:47:21;;;;;;;8.70;6.82;;;;;;;29.14;47.67;99522.84;4291067;33;36000;-69
2022/06/05 09:49:54;;;;;;;8.57;6.77;;;;;;;28.13;50.79;99518.69;4302069;33;35113;-70
2022/06/05 09:52:25;;;;;;;10.38;7.68;;;;;;;28.35;49.38;99521.31;4303828;33;33588;-70
2022/06/05 09:55:08;;;;;;;8.13;6.60;;;;;;;27.71;52.92;99521.16;4302154;33;33137;-71
2022/06/05 10:00:31;;;;;;;9.13;7.20;;;;;;;27.16;52.19;99531.59;4292331;33;34417;-70
2022/06/05 10:03:03;;;;;;;10.20;7.55;;;;;;;27.62;50.82;99528.06;4303198;33;34278;-71
2022/06/05 10:05:34;;;;;;;8.77;6.90;;;;;;;26.90;52.84;99522.91;4301795;33;34003;-72
2022/06/05 10:08:13;;;;;;;8.43;6.87;;;;;;;27.25;53.44;99522.88;4301917;33;36056;-73
2022/06/05 10:10:42;;;;;;;8.73;6.85;;;;;;;27.16;52.85;99526.25;4302697;33;34424;-71
2022/06/05 10:13:21;;;;;;;7.97;6.65;;;;;;;27.45;51.62;99525.88;4304339;33;33632;-71
2022/06/05 10:16:19;;;;;;;11.02;6.72;;;;;;;27.99;52.27;99522.50;4305753;33;34192;-70
2022/06/05 10:18:56;;;;;;;10.02;7.12;;;;;;;29.04;49.54;99522.75;4304277;33;35711;-72
2022/06/05 10:21:33;;;;;;;9.52;7.45;;;;;;;28.49;48.91;99520.19;4316486;33;35199;-71
2022/06/05 10:24:27;;;;;;;9.80;7.30;;;;;;;28.10;49.44;99522.47;4292067;33;34075;-72
2022/06/05 10:27:00;;;;;;;9.75;7.25;;;;;;;27.74;50.99;99510.16;4315727;33;34834;-71
2022/06/05 10:29:41;;;;;;;8.75;6.70;;;;;;;27.94;48.92;99511.31;4314510;33;35079;-70
2022/06/05 10:32:32;;;;;;;8.10;7.05;;;;;;;28.80;48.57;99515.00;4293225;33;34346;-70
2022/06/05 10:35:02;;;;;;;8.90;6.30;;;;;;;29.21;45.99;99507.97;4303702;33;33420;-70
2022/06/05 10:37:51;;;;;;;11.27;6.50;;;;;;;29.70;48.68;99502.81;4302590;33;33017;-72
2022/06/05 10:40:28;;;;;;;8.60;6.60;;;;;;;30.02;44.34;99500.00;4305255;33;33044;-70
2022/06/05 10:43:04;;;;;;;8.00;5.68;;;;;;;29.42;47.37;99490.97;4301548;33;35276;-69
2022/06/05 10:46:02;;;;;;;6.40;5.20;;;;;;;29.60;47.57;99492.06;4315929;33;34272;-70
2022/06/05 10:48:45;;;;;;;8.10;5.70;;;;;;;29.30;44.16;99491.06;4288270;33;33978;-72
2022/06/05 10:51:27;;;;;;;6.25;5.05;;;;;;;29.03;43.71;99493.41;4302930;33;35229;-77
2022/06/05 10:54:15;;;;;;;7.10;5.78;;;;;;;28.42;44.13;99480.66;4303535;33;35076;-69
2022/06/05 10:56:55;;;;;;;6.70;5.57;;;;;;;29.59;41.53;99471.56;4300340;33;34310;-71
2022/06/05 10:59:44;;;;;;;5.97;4.62;;;;;;;29.55;41.33;99477.34;4303312;33;32400;-75
2022/06/05 11:02:34;;;;;;;6.70;5.55;;;;;;;30.22;42.14;99471.34;4303486;33;35157;-78
2022/06/05 11:05:26;;;;;;;7.20;4.50;;;;;;;29.59;40.97;99482.28;4316001;33;34431;-78
2022/06/05 11:08:28;;;;;;;7.40;5.05;;;;;;;30.11;40.29;99473.28;4303659;33;33391;-72
2022/06/05 11:14:12;;;;;;;6.72;4.75;;;;;;;29.38;42.29;99476.13;4296212;33;35149;-70
2022/06/05 11:17:16;;;;;;;5.78;4.82;;;;;;;29.10;41.58;99473.13;4296041;33;34450;-73
2022/06/05 11:19:55;;;;;;;6.82;4.72;;;;;;;29.66;39.04;99477.25;4308707;33;33611;-77
2022/06/05 11:22:26;;;;;;;5.47;4.20;;;;;;;29.38;41.16;99486.88;4297669;33;34686;-69
2022/06/05 11:24:57;;;;;;;6.53;4.70;;;;;;;29.32;41.83;99482.06;4315354;33;34927;-69
2022/06/05 11:27:40;;;;;;;6.87;4.65;;;;;;;29.52;39.90;99481.13;4314334;33;34549;-69
2022/06/05 11:30:19;;;;;;;6.78;4.45;;;;;;;29.75;44.31;99483.63;4303092;33;33546;-70
2022/06/05 11:32:56;;;;;;;6.60;3.87;;;;;;;30.15;40.76;99475.56;4301206;33;34637;-75
2022/06/05 11:35:55;;;;;;;5.90;4.37;;;;;;;30.42;37.52;99472.22;4321690;33;35918;-78
2022/06/05 11:38:33;;;;;;;6.25;4.53;;;;;;;30.68;38.78;99470.84;4315403;33;34310;-71
2022/06/05 11:41:01;;;;;;;5.80;4.30;;;;;;;30.33;39.86;99475.72;4304104;33;33464;-70
2022/06/05 11:43:34;;;;;;;5.55;4.28;;;;;;;29.83;39.21;99476.63;4304991;33;33688;-69
2022/06/05 11:46:35;;;;;;;6.15;4.22;;;;;;;30.36;39.88;99467.44;4302763;33;36009;-70
2022/06/05 11:49:12;;;;;;;6.43;4.40;;;;;;;29.87;40.76;99456.56;4303795;33;34605;-72
2022/06/05 11:52:02;;;;;;;5.43;4.00;;;;;;;28.95;39.40;99458.38;4302489;33;34438;-71
2022/06/05 11:54:36;;;;;;;5.95;4.78;;;;;;;29.09;40.58;99466.91;4290414;33;34768;-73
2022/06/05 11:57:10;;;;;;;6.47;3.83;;;;;;;29.51;39.64;99447.25;4295194;33;35942;-77
2022/06/05 11:59:56;;;;;;;6.00;4.30;;;;;;;29.44;38.75;99443.44;4291865;33;32913;-77
2022/06/05 12:02:48;;;;;;;5.57;4.30;;;;;;;29.06;41.24;99445.72;4303923;33;33430;-78
2022/06/05 12:05:50;;;;;;;5.18;4.20;;;;;;;29.45;40.67;99423.66;4304690;33;33758;-71
2022/06/05 12:08:23;;;;;;;7.12;4.32;;;;;;;29.37;39.96;99431.53;4302902;33;35017;-70
2022/06/05 12:11:05;;;;;;;8.13;4.70;;;;;;;29.71;40.50;99423.19;4303866;33;34469;-78
2022/06/05 12:13:54;;;;;;;6.70;4.62;;;;;;;29.45;41.18;99426.31;4303796;33;33250;-70
2022/06/05 12:16:46;;;;;;;5.22;4.43;;;;;;;29.22;40.11;99418.47;4303243;33;34793;-70
2022/06/05 12:19:39;;;;;;;8.80;4.80;;;;;;;28.43;40.70;99410.88;4291880;33;34220;-70
2022/06/05 12:22:20;;;;;;;8.30;4.62;;;;;;;28.41;41.50;99422.69;4304247;33;34330;-70